createdAt,value
2023-04-13T00:00:13.388Z,86.48
2023-04-13T00:03:01.735Z,85.99
2023-04-13T00:05:29.204Z,86.27
2023-04-13T00:07:56.360Z,86.41
2023-04-13T00:10:23.441Z,86.70
2023-04-13T00:12:50.444Z,86.79
2023-04-13T00:15:19.143Z,86.98
2023-04-13T00:17:47.141Z,86.94
2023-04-13T00:20:14.364Z,87.00
2023-04-13T00:22:45.158Z,87.06
2023-04-13T00:25:13.896Z,87.11
2023-04-13T00:27:42.077Z,87.23
2023-04-13T00:30:15.793Z,87.23
2023-04-13T00:32:44.222Z,87.40
2023-04-13T00:35:12.244Z,87.42
2023-04-13T00:37:39.395Z,87.57
2023-04-13T00:40:07.807Z,87.56
2023-04-13T00:42:35.403Z,87.68
2023-04-13T00:45:02.711Z,87.70
2023-04-13T00:47:36.367Z,87.67
2023-04-13T00:50:06.944Z,87.70
2023-04-13T00:52:39.713Z,87.85
2023-04-13T00:55:06.797Z,87.76
2023-04-13T00:57:34.511Z,87.75
2023-04-13T01:00:09.206Z,87.58
2023-04-13T01:02:36.548Z,87.38
2023-04-13T01:05:06.351Z,87.12
2023-04-13T01:07:44.454Z,87.30
2023-04-13T01:10:15.504Z,87.34
2023-04-13T01:12:51.173Z,87.12
2023-04-13T01:15:18.522Z,87.20
2023-04-13T01:17:56.410Z,87.29
2023-04-13T01:20:25.917Z,87.38
2023-04-13T01:22:56.972Z,87.45
2023-04-13T01:25:59.728Z,87.72
2023-04-13T01:28:28.349Z,87.63
2023-04-13T01:30:59.714Z,87.73
2023-04-13T01:33:30.001Z,87.65
2023-04-13T01:36:00.152Z,87.76
2023-04-13T01:38:27.167Z,87.80
2023-04-13T01:40:57.810Z,88.02
2023-04-13T01:43:27.217Z,87.89
2023-04-13T01:46:09.621Z,87.89
2023-04-13T01:48:48.443Z,87.86
2023-04-13T01:51:31.865Z,87.86
2023-04-13T01:54:02.667Z,87.81
2023-04-13T01:56:30.678Z,87.64
2023-04-13T01:59:01.745Z,87.51
2023-04-13T02:01:29.655Z,87.28
2023-04-13T02:03:58.713Z,87.23
2023-04-13T02:06:30.533Z,87.19
2023-04-13T02:08:58.868Z,87.32
2023-04-13T02:11:27.120Z,87.09
2023-04-13T02:13:57.025Z,87.09
2023-04-13T02:16:24.720Z,87.14
2023-04-13T02:18:51.735Z,87.11
2023-04-13T02:21:18.981Z,87.29
2023-04-13T02:23:45.968Z,87.13
2023-04-13T02:26:13.835Z,86.69
2023-04-13T02:28:41.891Z,86.59
2023-04-13T02:31:08.976Z,86.86
2023-04-13T02:33:37.172Z,86.68
2023-04-13T02:36:04.848Z,87.22
2023-04-13T02:38:36.922Z,86.88
2023-04-13T02:41:22.557Z,86.66
2023-04-13T02:43:50.215Z,86.75
2023-04-13T02:46:17.789Z,86.58
2023-04-13T02:48:44.843Z,86.89
2023-04-13T02:51:11.894Z,87.09
2023-04-13T02:53:40.893Z,87.38
2023-04-13T02:56:09.208Z,87.49
2023-04-13T02:58:36.224Z,87.45
2023-04-13T03:01:08.817Z,87.51
2023-04-13T03:03:36.168Z,87.40
2023-04-13T03:06:03.524Z,87.49
2023-04-13T03:08:40.793Z,87.77
2023-04-13T03:11:12.673Z,87.84
2023-04-13T03:13:44.430Z,87.95
2023-04-13T03:16:11.589Z,87.62
2023-04-13T03:18:38.948Z,87.94
2023-04-13T03:21:06.870Z,88.08
2023-04-13T03:23:39.407Z,88.36
2023-04-13T03:26:09.489Z,88.64
2023-04-13T03:28:36.316Z,88.38
2023-04-13T03:31:03.470Z,88.42
2023-04-13T03:33:31.355Z,88.20
2023-04-13T03:36:01.016Z,89.29
2023-04-13T03:38:31.966Z,88.33
2023-04-13T03:40:59.113Z,88.41
2023-04-13T03:43:26.806Z,88.88
2023-04-13T03:46:00.961Z,88.70
2023-04-13T03:48:28.065Z,88.38
2023-04-13T03:50:55.656Z,88.63
2023-04-13T03:53:26.024Z,88.57
2023-04-13T03:55:55.344Z,88.61
2023-04-13T03:58:22.913Z,88.00
2023-04-13T04:00:50.339Z,87.96
2023-04-13T04:03:38.057Z,89.22
2023-04-13T04:06:07.280Z,89.60
2023-04-13T04:08:35.377Z,89.48
2023-04-13T04:11:05.808Z,89.26
2023-04-13T04:13:33.065Z,89.56
2023-04-13T04:16:04.615Z,89.38
2023-04-13T04:18:32.544Z,89.48
2023-04-13T04:21:02.413Z,89.47
2023-04-13T04:23:30.199Z,89.36
2023-04-13T04:26:02.860Z,89.33
2023-04-13T04:28:38.224Z,89.33
2023-04-13T04:31:06.891Z,89.20
2023-04-13T04:33:33.804Z,89.29
2023-04-13T04:36:01.227Z,88.87
2023-04-13T04:38:30.036Z,88.71
2023-04-13T04:40:58.996Z,88.86
2023-04-13T04:43:26.668Z,88.78
2023-04-13T04:45:57.013Z,88.89
2023-04-13T04:48:24.512Z,88.84
2023-04-13T04:50:52.328Z,88.82
2023-04-13T04:53:19.695Z,88.20
2023-04-13T04:55:46.641Z,87.77
2023-04-13T04:58:25.191Z,88.36
2023-04-13T05:00:56.625Z,90.36
2023-04-13T05:03:23.685Z,89.66
2023-04-13T05:05:55.255Z,89.01
2023-04-13T05:08:28.010Z,89.31
2023-04-13T05:10:55.561Z,89.25
2023-04-13T05:13:22.767Z,89.29
2023-04-13T05:16:18.956Z,89.52
2023-04-13T05:18:46.343Z,89.49
2023-04-13T05:21:22.489Z,89.72
2023-04-13T05:23:54.663Z,89.69
2023-04-13T05:26:21.540Z,89.69
2023-04-13T05:28:48.466Z,89.79
2023-04-13T05:31:16.135Z,89.80
2023-04-13T05:33:44.148Z,89.85
2023-04-13T05:36:11.011Z,89.92
2023-04-13T05:38:38.565Z,90.18
2023-04-13T05:41:05.646Z,90.21
2023-04-13T05:43:33.992Z,90.43
2023-04-13T05:46:01.299Z,90.40
2023-04-13T05:48:29.014Z,90.39
2023-04-13T05:50:57.714Z,90.47
2023-04-13T05:53:25.650Z,91.38
2023-04-13T05:55:54.148Z,90.89
2023-04-13T05:58:21.566Z,90.76
2023-04-13T06:00:52.517Z,90.55
2023-04-13T06:03:22.589Z,90.16
2023-04-13T06:05:49.655Z,90.15
2023-04-13T06:08:16.453Z,90.48
2023-04-13T06:10:44.318Z,89.98
2023-04-13T06:13:11.877Z,89.62
2023-04-13T06:15:38.888Z,89.48
2023-04-13T06:18:06.125Z,89.35
2023-04-13T06:20:33.481Z,89.31
2023-04-13T06:23:00.435Z,87.45
2023-04-13T06:25:27.652Z,87.23
2023-04-13T06:27:54.654Z,87.47
2023-04-13T06:30:21.739Z,87.56
2023-04-13T06:32:51.414Z,88.54
2023-04-13T06:35:20.568Z,87.72
2023-04-13T06:37:48.417Z,87.57
2023-04-13T06:40:21.531Z,85.22
2023-04-13T06:42:56.402Z,83.95
2023-04-13T06:45:43.662Z,83.52
2023-04-13T06:48:16.609Z,83.37
2023-04-13T06:50:44.233Z,83.97
2023-04-13T06:53:11.884Z,84.11
2023-04-13T06:55:39.548Z,84.84
2023-04-13T06:58:06.842Z,84.04
2023-04-13T07:00:33.748Z,83.47
2023-04-13T07:03:01.393Z,84.28
2023-04-13T07:05:28.315Z,83.03
2023-04-13T07:07:59.301Z,82.49
2023-04-13T07:10:26.741Z,82.48
2023-04-13T07:12:54.345Z,82.52
2023-04-13T07:15:22.449Z,82.56
2023-04-13T07:17:49.818Z,82.23
2023-04-13T07:20:17.264Z,82.08
2023-04-13T07:22:46.282Z,82.62
2023-04-13T07:25:13.203Z,82.10
2023-04-13T07:27:40.118Z,81.54
2023-04-13T07:30:08.492Z,81.71
2023-04-13T07:32:38.453Z,81.97
2023-04-13T07:35:05.924Z,81.79
2023-04-13T07:37:34.657Z,81.32
2023-04-13T07:40:02.291Z,79.92
2023-04-13T07:42:31.305Z,80.30
2023-04-13T07:44:58.349Z,78.72
2023-04-13T07:47:26.403Z,79.88
2023-04-13T07:49:56.391Z,79.37
2023-04-13T07:52:23.424Z,78.53
2023-04-13T07:54:51.276Z,77.79
2023-04-13T07:57:20.854Z,77.50
2023-04-13T07:59:51.111Z,77.63
2023-04-13T08:02:20.971Z,77.87
2023-04-13T08:04:49.092Z,77.87
2023-04-13T08:07:22.380Z,76.07
2023-04-13T08:09:51.922Z,74.66
2023-04-13T08:12:19.189Z,74.34
2023-04-13T08:14:46.702Z,73.38
2023-04-13T08:17:13.847Z,73.17
2023-04-13T08:19:41.005Z,72.81
2023-04-13T08:22:10.056Z,71.09
2023-04-13T08:24:36.983Z,71.46
2023-04-13T08:27:06.812Z,73.62
2023-04-13T08:29:33.741Z,69.75
2023-04-13T08:32:01.151Z,71.05
2023-04-13T08:34:29.185Z,67.66
2023-04-13T08:36:56.860Z,70.91
2023-04-13T08:39:25.529Z,70.10
2023-04-13T08:41:52.786Z,70.00
2023-04-13T08:44:20.843Z,69.07
2023-04-13T08:46:51.329Z,68.49
2023-04-13T08:49:22.879Z,62.41
2023-04-13T08:52:09.353Z,64.94
2023-04-13T08:54:37.009Z,64.43
2023-04-13T08:57:05.932Z,57.83
2023-04-13T08:59:33.776Z,59.34
2023-04-13T09:02:04.237Z,59.83
2023-04-13T09:04:35.766Z,54.46
2023-04-13T09:07:04.272Z,56.85
2023-04-13T09:09:32.093Z,57.83
2023-04-13T09:11:58.917Z,57.10
2023-04-13T09:14:26.570Z,54.65
2023-04-13T09:16:53.468Z,52.62
2023-04-13T09:19:29.749Z,55.29
2023-04-13T09:21:57.170Z,55.33
2023-04-13T09:24:24.150Z,55.78
2023-04-13T09:26:50.980Z,56.68
2023-04-13T09:29:19.811Z,55.84
2023-04-13T09:31:47.918Z,55.21
2023-04-13T09:34:24.926Z,55.09
2023-04-13T09:36:54.519Z,52.10
2023-04-13T09:39:27.073Z,54.34
2023-04-13T09:41:54.489Z,53.16
2023-04-13T09:44:23.974Z,49.75
2023-04-13T09:46:58.508Z,51.29
2023-04-13T09:49:26.351Z,49.84
2023-04-13T09:51:54.055Z,51.92
2023-04-13T09:54:22.193Z,51.54
2023-04-13T09:56:55.286Z,47.70
2023-04-13T09:59:25.635Z,49.82
2023-04-13T10:01:55.767Z,48.36
2023-04-13T10:04:22.699Z,47.68
2023-04-13T10:06:49.593Z,49.47
2023-04-13T10:09:17.170Z,49.77
2023-04-13T10:11:50.209Z,48.14
2023-04-13T10:14:19.841Z,47.05
2023-04-13T10:16:55.849Z,47.15
2023-04-13T10:19:24.408Z,45.09
2023-04-13T10:21:52.058Z,45.04
2023-04-13T10:24:19.605Z,43.50
2023-04-13T10:26:47.125Z,42.33
2023-04-13T10:29:15.966Z,41.84
2023-04-13T10:31:47.311Z,41.22
2023-04-13T10:34:27.613Z,44.17
2023-04-13T10:36:57.494Z,43.34
2023-04-13T10:39:25.350Z,40.04
2023-04-13T10:42:18.679Z,44.20
2023-04-13T10:44:47.033Z,42.92
2023-04-13T10:47:14.964Z,40.03
2023-04-13T10:49:43.059Z,43.18
2023-04-13T10:52:13.116Z,45.93
2023-04-13T10:54:40.732Z,44.27
2023-04-13T10:57:09.203Z,41.46
2023-04-13T10:59:59.235Z,40.67
2023-04-13T11:02:30.155Z,40.27
2023-04-13T11:04:59.018Z,40.14
2023-04-13T11:07:26.345Z,38.71
2023-04-13T11:12:29.454Z,39.62
2023-04-13T11:14:56.355Z,37.44
2023-04-13T11:17:23.479Z,40.60
2023-04-13T11:19:54.787Z,39.27
2023-04-13T11:22:23.333Z,41.44
2023-04-13T11:24:51.026Z,39.33
2023-04-13T11:27:22.640Z,39.89
2023-04-13T11:30:05.989Z,39.32
2023-04-13T11:32:33.659Z,35.68
2023-04-13T11:35:10.312Z,35.51
2023-04-13T11:37:41.321Z,35.89
2023-04-13T11:40:16.929Z,36.50
2023-04-13T11:42:45.685Z,38.29
2023-04-13T11:45:16.300Z,38.50
2023-04-13T11:47:44.137Z,37.68
2023-04-13T11:50:12.972Z,39.00
2023-04-13T11:52:41.364Z,36.46
2023-04-13T11:55:21.400Z,34.77
2023-04-13T11:57:50.679Z,33.33
2023-04-13T12:00:23.513Z,33.27
2023-04-13T12:03:01.758Z,35.86
2023-04-13T12:05:31.649Z,34.69
2023-04-13T12:08:00.067Z,36.75
2023-04-13T12:10:38.535Z,36.55
2023-04-13T12:16:04.424Z,36.71
2023-04-13T12:18:40.110Z,36.55
2023-04-13T12:21:07.398Z,34.78
2023-04-13T12:23:34.490Z,35.16
2023-04-13T12:26:18.838Z,36.14
2023-04-13T12:28:56.889Z,34.11
2023-04-13T12:31:24.102Z,36.56
2023-04-13T12:33:51.121Z,34.42
2023-04-13T12:36:18.020Z,35.76
2023-04-13T12:38:45.390Z,34.65
2023-04-13T12:41:12.304Z,33.99
2023-04-13T12:43:39.228Z,35.06
2023-04-13T12:46:06.038Z,35.20
2023-04-13T12:48:32.940Z,34.24
2023-04-13T12:50:59.811Z,34.18
2023-04-13T12:53:26.750Z,33.24
2023-04-13T12:55:53.739Z,33.85
2023-04-13T12:58:20.689Z,33.82
2023-04-13T13:00:47.636Z,33.09
2023-04-13T13:03:15.418Z,33.05
2023-04-13T13:05:42.777Z,32.55
2023-04-13T13:08:09.717Z,33.71
2023-04-13T13:10:36.766Z,31.35
2023-04-13T13:13:03.650Z,32.58
2023-04-13T13:15:31.239Z,32.81
2023-04-13T13:18:00.349Z,33.31
2023-04-13T13:20:27.319Z,32.70
2023-04-13T13:22:54.253Z,33.57
2023-04-13T13:25:21.199Z,31.80
2023-04-13T13:30:18.058Z,31.65
2023-04-13T13:32:45.077Z,32.98
2023-04-13T13:35:13.564Z,32.12
2023-04-13T13:37:40.377Z,32.35
2023-04-13T13:40:12.320Z,33.33
2023-04-13T13:42:50.556Z,33.01
2023-04-13T13:45:18.659Z,32.99
2023-04-13T13:47:49.339Z,32.32
2023-04-13T13:50:16.241Z,31.06
2023-04-13T13:52:59.224Z,31.20
2023-04-13T13:55:30.345Z,30.73
2023-04-13T13:57:58.271Z,30.49
2023-04-13T14:00:25.229Z,30.74
2023-04-13T14:02:52.496Z,31.59
2023-04-13T14:05:21.413Z,33.52
2023-04-13T14:07:48.464Z,32.25
2023-04-13T14:10:15.593Z,31.34
2023-04-13T14:12:44.238Z,30.68
2023-04-13T14:15:12.124Z,29.74
2023-04-13T14:17:39.604Z,30.12
2023-04-13T14:20:13.511Z,31.48
2023-04-13T14:22:41.333Z,31.89
2023-04-13T14:25:08.826Z,31.30
2023-04-13T14:27:36.420Z,29.84
2023-04-13T14:30:04.673Z,28.70
2023-04-13T14:32:31.900Z,28.90
2023-04-13T14:34:59.781Z,30.37
2023-04-13T14:37:27.291Z,28.79
2023-04-13T14:39:54.599Z,27.88
2023-04-13T14:42:23.786Z,30.76
2023-04-13T14:44:51.353Z,32.87
2023-04-13T14:47:18.920Z,30.54
2023-04-13T14:49:45.964Z,30.23
2023-04-13T14:52:13.787Z,32.27
2023-04-13T14:54:40.739Z,33.33
2023-04-13T14:57:09.289Z,32.22
2023-04-13T14:59:36.720Z,31.62
2023-04-13T15:02:03.938Z,33.00
2023-04-13T15:04:31.391Z,31.96
2023-04-13T15:06:58.643Z,30.79
2023-04-13T15:09:25.440Z,28.80
2023-04-13T15:11:52.526Z,30.65
2023-04-13T15:14:19.578Z,32.58
2023-04-13T15:16:46.579Z,30.60
2023-04-13T15:19:13.452Z,32.94
2023-04-13T15:21:41.118Z,29.09
2023-04-13T15:24:08.633Z,28.97
2023-04-13T15:26:42.093Z,31.54
2023-04-13T15:29:09.112Z,31.19
2023-04-13T15:31:37.126Z,30.51
2023-04-13T15:34:10.622Z,32.68
2023-04-13T15:36:37.809Z,33.00
2023-04-13T15:39:04.739Z,33.17
2023-04-13T15:41:31.609Z,30.37
2023-04-13T15:44:02.823Z,31.78
2023-04-13T15:46:29.941Z,33.61
2023-04-13T15:48:56.988Z,34.58
2023-04-13T15:51:23.996Z,30.03
2023-04-13T15:53:50.922Z,29.40
2023-04-13T15:56:17.728Z,30.92
2023-04-13T15:58:44.614Z,32.75
2023-04-13T16:01:11.706Z,30.68
2023-04-13T16:03:39.788Z,33.30
2023-04-13T16:06:07.334Z,31.98
2023-04-13T16:08:34.259Z,33.52
2023-04-13T16:11:01.358Z,34.53
2023-04-13T16:13:41.170Z,35.13
2023-04-13T16:16:14.736Z,35.43
2023-04-13T16:18:41.835Z,35.37
2023-04-13T16:21:10.308Z,34.56
2023-04-13T16:23:37.669Z,35.09
2023-04-13T16:26:04.534Z,35.11
2023-04-13T16:28:31.386Z,35.45
2023-04-13T16:30:58.422Z,35.35
2023-04-13T16:33:25.553Z,34.73
2023-04-13T16:35:52.455Z,33.42
2023-04-13T16:38:19.594Z,34.00
2023-04-13T16:40:46.426Z,34.70
2023-04-13T16:43:13.341Z,36.56
2023-04-13T16:45:41.553Z,35.38
2023-04-13T16:48:08.406Z,36.37
2023-04-13T16:50:35.362Z,39.03
2023-04-13T16:53:02.293Z,39.65
2023-04-13T16:55:30.722Z,38.55
2023-04-13T16:57:57.586Z,37.88
2023-04-13T17:00:24.824Z,39.46
2023-04-13T17:02:51.798Z,39.78
2023-04-13T17:05:18.713Z,40.33
2023-04-13T17:07:47.609Z,40.51
2023-04-13T17:10:16.915Z,40.71
2023-04-13T17:12:43.834Z,40.97
2023-04-13T17:15:10.716Z,41.02
2023-04-13T17:17:37.686Z,41.35
2023-04-13T17:20:05.409Z,41.73
2023-04-13T17:22:32.295Z,42.22
2023-04-13T17:24:59.169Z,42.60
2023-04-13T17:27:26.204Z,42.73
2023-04-13T17:29:53.174Z,43.36
2023-04-13T17:32:21.215Z,43.70
2023-04-13T17:34:48.857Z,44.21
2023-04-13T17:37:16.942Z,44.41
2023-04-13T17:39:47.057Z,44.55
2023-04-13T17:42:14.715Z,44.94
2023-04-13T17:44:42.198Z,45.30
2023-04-13T17:47:09.522Z,45.74
2023-04-13T17:49:37.133Z,46.09
2023-04-13T17:52:04.060Z,46.44
2023-04-13T17:54:31.123Z,46.60
2023-04-13T17:56:58.027Z,46.80
2023-04-13T17:59:25.267Z,46.92
2023-04-13T18:01:52.949Z,47.07
2023-04-13T18:04:20.540Z,47.20
2023-04-13T18:06:48.007Z,47.32
2023-04-13T18:09:15.169Z,47.89
2023-04-13T18:11:42.206Z,48.12
2023-04-13T18:14:11.520Z,48.21
2023-04-13T18:16:38.738Z,48.23
2023-04-13T18:19:06.170Z,48.15
2023-04-13T18:21:33.423Z,48.12
2023-04-13T18:24:00.815Z,48.13
2023-04-13T18:26:28.346Z,48.32
2023-04-13T18:28:55.395Z,48.36
2023-04-13T18:31:22.818Z,48.35
2023-04-13T18:33:50.056Z,48.72
2023-04-13T18:36:17.775Z,48.76
2023-04-13T18:38:45.604Z,49.12
2023-04-13T18:41:12.836Z,49.46
2023-04-13T18:43:40.140Z,49.77
2023-04-13T18:46:07.420Z,50.09
2023-04-13T18:48:34.704Z,50.37
2023-04-13T18:51:02.601Z,50.70
2023-04-13T18:53:29.488Z,50.84
2023-04-13T18:55:57.414Z,51.00
2023-04-13T18:58:24.313Z,51.19
2023-04-13T19:00:51.342Z,51.26
2023-04-13T19:03:18.501Z,51.14
2023-04-13T19:05:45.808Z,51.37
2023-04-13T19:08:13.538Z,51.41
2023-04-13T19:10:41.217Z,51.76
2023-04-13T19:13:08.179Z,51.95
2023-04-13T19:15:35.334Z,52.41
2023-04-13T19:18:03.630Z,52.59
2023-04-13T19:20:30.609Z,52.90
2023-04-13T19:22:57.403Z,52.77
2023-04-13T19:25:24.519Z,53.27
2023-04-13T19:27:51.514Z,53.21
2023-04-13T19:30:19.182Z,53.18
2023-04-13T19:32:46.963Z,53.62
2023-04-13T19:35:14.041Z,53.94
2023-04-13T19:37:41.572Z,54.14
2023-04-13T19:40:09.433Z,53.65
2023-04-13T19:42:36.490Z,53.79
2023-04-13T19:45:03.598Z,54.31
2023-04-13T19:47:30.535Z,54.49
2023-04-13T19:49:57.549Z,54.68
2023-04-13T19:52:24.708Z,54.79
2023-04-13T19:54:51.655Z,54.78
2023-04-13T19:57:19.122Z,54.95
2023-04-13T19:59:46.146Z,56.02
2023-04-13T20:02:13.068Z,56.13
2023-04-13T20:04:40.564Z,56.20
2023-04-13T20:07:07.891Z,56.44
2023-04-13T20:09:35.025Z,56.11
2023-04-13T20:12:02.053Z,55.90
2023-04-13T20:14:28.939Z,57.15
2023-04-13T20:16:56.000Z,58.05
2023-04-13T20:19:23.923Z,58.04
2023-04-13T20:21:51.306Z,58.76
2023-04-13T20:24:18.404Z,58.59
2023-04-13T20:26:46.434Z,58.85
2023-04-13T20:29:18.529Z,59.10
2023-04-13T20:31:45.439Z,59.44
2023-04-13T20:34:12.990Z,59.97
2023-04-13T20:36:39.999Z,59.65
2023-04-13T20:39:08.971Z,60.09
2023-04-13T20:41:36.213Z,59.94
2023-04-13T20:44:03.525Z,60.08
2023-04-13T20:46:33.855Z,60.63
2023-04-13T20:49:04.595Z,60.56
2023-04-13T20:51:32.527Z,60.79
2023-04-13T20:54:01.247Z,61.31
2023-04-13T20:56:29.236Z,61.20
2023-04-13T20:58:57.271Z,61.24
2023-04-13T21:01:29.736Z,60.96
2023-04-13T21:03:56.666Z,60.87
2023-04-13T21:06:24.148Z,60.92
2023-04-13T21:08:52.349Z,60.61
2023-04-13T21:11:19.320Z,60.58
2023-04-13T21:13:46.734Z,60.52
2023-04-13T21:16:13.844Z,60.20
2023-04-13T21:18:41.714Z,60.28
2023-04-13T21:21:08.707Z,60.34
2023-04-13T21:23:36.887Z,60.29
2023-04-13T21:26:04.030Z,61.17
2023-04-13T21:28:30.910Z,61.00
2023-04-13T21:30:57.940Z,61.27
2023-04-13T21:33:25.206Z,60.98
2023-04-13T21:35:52.195Z,60.77
2023-04-13T21:38:19.020Z,60.67
2023-04-13T21:40:45.879Z,60.94
2023-04-13T21:43:12.800Z,60.82
2023-04-13T21:45:39.701Z,60.77
2023-04-13T21:48:06.595Z,60.36
2023-04-13T21:50:33.558Z,60.08
2023-04-13T21:53:00.353Z,59.96
2023-04-13T21:55:27.345Z,60.08
2023-04-13T21:57:54.351Z,59.91
2023-04-13T22:00:21.988Z,59.53
2023-04-13T22:02:50.645Z,59.07
2023-04-13T22:05:17.728Z,58.71
2023-04-13T22:07:44.660Z,58.69
2023-04-13T22:10:11.784Z,58.78
2023-04-13T22:12:38.660Z,58.98
2023-04-13T22:15:05.772Z,59.01
2023-04-13T22:17:32.811Z,59.28
2023-04-13T22:20:00.145Z,59.24
2023-04-13T22:22:27.019Z,59.31
2023-04-13T22:24:53.935Z,59.37
2023-04-13T22:27:21.242Z,59.39
2023-04-13T22:29:48.102Z,59.57
2023-04-13T22:32:15.969Z,59.41
2023-04-13T22:34:42.771Z,60.45
2023-04-13T22:37:11.716Z,60.73
2023-04-13T22:39:39.119Z,60.02
2023-04-13T22:42:06.229Z,60.76
2023-04-13T22:44:33.836Z,60.27
2023-04-13T22:47:01.092Z,60.40
2023-04-13T22:49:29.374Z,60.30
2023-04-13T22:51:56.433Z,59.96
2023-04-13T22:54:23.581Z,59.38
2023-04-13T22:56:50.740Z,59.23
2023-04-13T22:59:17.892Z,58.86
2023-04-13T23:01:45.151Z,58.84
2023-04-13T23:04:15.032Z,58.62
2023-04-13T23:06:42.640Z,58.52
2023-04-13T23:09:10.441Z,58.33
2023-04-13T23:11:37.573Z,58.07
2023-04-13T23:14:06.150Z,58.05
2023-04-13T23:16:33.674Z,57.44
2023-04-13T23:19:00.865Z,56.37
2023-04-13T23:21:28.641Z,56.95
2023-04-13T23:23:55.696Z,56.94
2023-04-13T23:26:22.733Z,57.19
2023-04-13T23:28:49.738Z,58.51
2023-04-13T23:31:16.724Z,59.58
2023-04-13T23:33:43.802Z,60.50
2023-04-13T23:36:11.366Z,60.69
2023-04-13T23:38:38.255Z,61.04
2023-04-13T23:41:05.131Z,62.84
2023-04-13T23:43:32.037Z,62.58
2023-04-13T23:45:59.037Z,62.55
2023-04-13T23:48:26.709Z,63.04
2023-04-13T23:50:53.841Z,63.04
2023-04-13T23:53:20.755Z,62.69
2023-04-13T23:55:47.707Z,62.45
2023-04-13T23:58:14.866Z,62.55
